PWSweather.com
Personal Weather Stations
Station Observations
ALMOSTER
Urb. Mas Carreras, AlmosterES 43393

Urb. Mas CarrerasAlmosterES 43393

Lat: 41.1908333333, Lon: 1.1086111111

Elevation: 836.6

Station Type: Davis Vantage Pro 2

http://www.meteoalmoster.net

High Low Average
Temperature 56.8°F13.8°C 42.6°F5.9°C 50.5°F10.3°C
Dew Point 40.3°F4.6°C 32.5°F0.3°C 36.8°F2.7°C
Winds 22.0 mph 35.4 kmh Calm Calm 8.0 mph WSW12.9 kmh WSW
Wind Gusts 39.0 mph62.8 kmh -- 16.0 mph25.7 kmh
Humidity 77% 44% 60%
Pressure 30.41 in1029.8 mb 30.11 in1019.6 mb -
Precipitation 0.01 in0.3 mm - -
Hour Temp Dew Point Humidity Winds Wind Gusts Pressure Precip Precip Rate Daily Precip Total
12:00 AM 53.6°F12.0°C 38.3°F3.5°C 56% 2.0 mph SW3.2 kmh SW 11.0 mph17.7 kmh 30.12 in1020.0 mb 0.00 in0.0 mm 0.00 in0.0 mm 0.00 in0.0 mm
12:30 AM 53.8°F12.1°C 37.0°F2.8°C 53% 12.0 mph W19.3 kmh W 26.0 mph41.8 kmh 30.12 in1020.0 mb 0.00 in0.0 mm 0.00 in0.0 mm 0.00 in0.0 mm
01:00 AM 53.8°F12.1°C 35.1°F1.7°C 49% 12.0 mph W19.3 kmh W 27.0 mph43.5 kmh 30.12 in1020.0 mb 0.00 in0.0 mm 0.00 in0.0 mm 0.00 in0.0 mm
01:30 AM 54.0°F12.2°C 32.5°F0.3°C 44% 20.0 mph WNW32.2 kmh WNW 39.0 mph62.8 kmh 30.11 in1019.6 mb 0.00 in0.0 mm 0.00 in0.0 mm 0.00 in0.0 mm
02:00 AM 54.1°F12.3°C 33.8°F1.0°C 46% 18.0 mph NW29.0 kmh NW 33.0 mph53.1 kmh 30.13 in1020.3 mb 0.00 in0.0 mm 0.00 in0.0 mm 0.00 in0.0 mm
02:30 AM 53.4°F11.9°C 34.3°F1.3°C 48% 16.0 mph NW25.7 kmh NW 29.0 mph46.7 kmh 30.15 in1021.0 mb 0.01 in0.3 mm 0.02 in0.5 mm 0.01 in0.3 mm
03:00 AM 52.3°F11.3°C 34.7°F1.5°C 51% 16.0 mph NW25.7 kmh NW 28.0 mph45.1 kmh 30.16 in1021.3 mb 0.01 in0.3 mm 0.00 in0.0 mm 0.01 in0.3 mm
03:30 AM 52.2°F11.2°C 35.1°F1.7°C 52% 20.0 mph NW32.2 kmh NW 34.0 mph54.7 kmh 30.16 in1021.3 mb 0.00 in0.0 mm 0.00 in0.0 mm 0.01 in0.3 mm
04:00 AM 51.3°F10.7°C 35.6°F2.0°C 55% 15.0 mph NW24.1 kmh NW 28.0 mph45.1 kmh 30.17 in1021.7 mb 0.00 in0.0 mm 0.00 in0.0 mm 0.01 in0.3 mm
04:30 AM 50.5°F10.3°C 35.4°F1.9°C 56% 11.0 mph NW17.7 kmh NW 20.0 mph32.2 kmh 30.19 in1022.4 mb 0.00 in0.0 mm 0.00 in0.0 mm 0.01 in0.3 mm
05:00 AM 51.1°F10.6°C 35.4°F1.9°C 55% 14.0 mph NW22.5 kmh NW 28.0 mph45.1 kmh 30.18 in1022.0 mb 0.00 in0.0 mm 0.00 in0.0 mm 0.01 in0.3 mm
05:30 AM 50.5°F10.3°C 35.4°F1.9°C 56% 10.0 mph WNW16.1 kmh WNW 23.0 mph37.0 kmh 30.21 in1023.0 mb 0.00 in0.0 mm 0.00 in0.0 mm 0.01 in0.3 mm
06:00 AM 49.6°F9.8°C 35.6°F2.0°C 58% 2.0 mph NW3.2 kmh NW 12.0 mph19.3 kmh 30.23 in1023.7 mb 0.00 in0.0 mm 0.00 in0.0 mm 0.01 in0.3 mm
06:30 AM 49.5°F9.7°C 36.1°F2.3°C 60% 6.0 mph NNW9.7 kmh NNW 11.0 mph17.7 kmh 30.25 in1024.4 mb 0.00 in0.0 mm 0.00 in0.0 mm 0.01 in0.3 mm
07:00 AM 48.4°F9.1°C 36.3°F2.4°C 63% 3.0 mph WNW4.8 kmh WNW 10.0 mph16.1 kmh 30.27 in1025.1 mb 0.00 in0.0 mm 0.00 in0.0 mm 0.01 in0.3 mm
07:30 AM 47.7°F8.7°C 36.0°F2.2°C 64% 2.0 mph NW3.2 kmh NW 13.0 mph20.9 kmh 30.29 in1025.7 mb 0.00 in0.0 mm 0.00 in0.0 mm 0.01 in0.3 mm
08:00 AM 47.8°F8.8°C 36.1°F2.3°C 64% 12.0 mph WNW19.3 kmh WNW 21.0 mph33.8 kmh 30.28 in1025.4 mb 0.00 in0.0 mm 0.00 in0.0 mm 0.01 in0.3 mm
08:30 AM 49.5°F9.7°C 36.1°F2.3°C 60% 22.0 mph NW35.4 kmh NW 39.0 mph62.8 kmh 30.27 in1025.1 mb 0.00 in0.0 mm 0.00 in0.0 mm 0.01 in0.3 mm
09:00 AM 49.8°F9.9°C 36.5°F2.5°C 60% 21.0 mph WNW33.8 kmh WNW 37.0 mph59.5 kmh 30.29 in1025.7 mb 0.00 in0.0 mm 0.00 in0.0 mm 0.01 in0.3 mm
09:30 AM 50.7°F10.4°C 36.1°F2.3°C 57% 21.0 mph WNW33.8 kmh WNW 39.0 mph62.8 kmh 30.30 in1026.1 mb 0.00 in0.0 mm 0.00 in0.0 mm 0.01 in0.3 mm
10:00 AM 54.5°F12.5°C 35.2°F1.8°C 48% 11.0 mph NW17.7 kmh NW 18.0 mph29.0 kmh 30.30 in1026.1 mb 0.00 in0.0 mm 0.00 in0.0 mm 0.01 in0.3 mm
10:32 AM 54.1°F12.3°C 37.4°F3.0°C 53% 2.0 mph NE3.2 kmh NE 12.0 mph19.3 kmh 30.33 in1027.1 mb 0.00 in0.0 mm 0.00 in0.0 mm 0.01 in0.3 mm
11:00 AM 53.8°F12.1°C 37.6°F3.1°C 54% Calm Calm 2.0 mph3.2 kmh 30.34 in1027.4 mb 0.00 in0.0 mm 0.00 in0.0 mm 0.01 in0.3 mm
11:30 AM 54.1°F12.3°C 36.9°F2.7°C 52% 3.0 mph WNW4.8 kmh WNW 8.0 mph12.9 kmh 30.34 in1027.4 mb 0.00 in0.0 mm 0.00 in0.0 mm 0.01 in0.3 mm
12:00 PM 55.2°F12.9°C 40.3°F4.6°C 57% 6.0 mph SSE9.7 kmh SSE 12.0 mph19.3 kmh 30.34 in1027.4 mb 0.00 in0.0 mm 0.00 in0.0 mm 0.01 in0.3 mm
12:30 PM 56.1°F13.4°C 38.8°F3.8°C 52% Calm Calm -- 30.33 in1027.1 mb 0.00 in0.0 mm 0.00 in0.0 mm 0.01 in0.3 mm
01:00 PM 56.8°F13.8°C 37.9°F3.3°C 49% Calm Calm -- 30.32 in1026.8 mb 0.00 in0.0 mm 0.00 in0.0 mm 0.01 in0.3 mm
01:30 PM 52.9°F11.6°C 38.8°F3.8°C 59% 12.0 mph WNW19.3 kmh WNW 21.0 mph33.8 kmh 30.33 in1027.1 mb 0.00 in0.0 mm 0.00 in0.0 mm 0.01 in0.3 mm
02:00 PM 53.2°F11.8°C 38.8°F3.8°C 58% 9.0 mph NW14.5 kmh NW 17.0 mph27.4 kmh 30.33 in1027.1 mb 0.00 in0.0 mm 0.00 in0.0 mm 0.01 in0.3 mm
02:30 PM 52.5°F11.4°C 38.7°F3.7°C 59% 12.0 mph NW19.3 kmh NW 19.0 mph30.6 kmh 30.34 in1027.4 mb 0.00 in0.0 mm 0.00 in0.0 mm 0.01 in0.3 mm
03:00 PM 53.1°F11.7°C 38.3°F3.5°C 57% 13.0 mph NW20.9 kmh NW 20.0 mph32.2 kmh 30.34 in1027.4 mb 0.00 in0.0 mm 0.00 in0.0 mm 0.01 in0.3 mm
03:30 PM 53.1°F11.7°C 37.8°F3.2°C 56% 12.0 mph NW19.3 kmh NW 18.0 mph29.0 kmh 30.32 in1026.8 mb 0.00 in0.0 mm 0.00 in0.0 mm 0.01 in0.3 mm
04:00 PM 54.1°F12.3°C 35.4°F1.9°C 49% 12.0 mph NW19.3 kmh NW 17.0 mph27.4 kmh 30.32 in1026.8 mb 0.00 in0.0 mm 0.00 in0.0 mm 0.01 in0.3 mm
04:30 PM 54.0°F12.2°C 38.7°F3.7°C 56% Calm Calm 2.0 mph3.2 kmh 30.32 in1026.8 mb 0.00 in0.0 mm 0.00 in0.0 mm 0.01 in0.3 mm
05:00 PM 53.8°F12.1°C 38.3°F3.5°C 56% 2.0 mph SE3.2 kmh SE 9.0 mph14.5 kmh 30.34 in1027.4 mb 0.00 in0.0 mm 0.00 in0.0 mm 0.01 in0.3 mm
05:30 PM 51.4°F10.8°C 38.8°F3.8°C 62% Calm Calm -- 30.35 in1027.8 mb 0.00 in0.0 mm 0.00 in0.0 mm 0.01 in0.3 mm
06:00 PM 48.4°F9.1°C 38.3°F3.5°C 68% 1.0 mph N1.6 kmh N 4.0 mph6.4 kmh 30.37 in1028.4 mb 0.00 in0.0 mm 0.00 in0.0 mm 0.01 in0.3 mm
06:15 PM 46.9°F8.3°C 38.0°F3.3°C 71% Calm Calm -- 30.37 in1028.4 mb 0.00 in0.0 mm 0.00 in0.0 mm 0.01 in0.3 mm
06:30 PM 46.2°F7.9°C 37.4°F3.0°C 71% 2.0 mph N3.2 kmh N 7.0 mph11.3 kmh 30.38 in1028.8 mb 0.00 in0.0 mm 0.00 in0.0 mm 0.01 in0.3 mm
07:00 PM 48.9°F9.4°C 38.1°F3.4°C 66% 2.0 mph NE3.2 kmh NE 9.0 mph14.5 kmh 30.39 in1029.1 mb 0.00 in0.0 mm 0.00 in0.0 mm 0.01 in0.3 mm
07:30 PM 46.0°F7.8°C 37.4°F3.0°C 72% 2.0 mph NNW3.2 kmh NNW 7.0 mph11.3 kmh 30.40 in1029.5 mb 0.00 in0.0 mm 0.00 in0.0 mm 0.01 in0.3 mm
08:00 PM 44.8°F7.1°C 37.0°F2.8°C 74% 4.0 mph NW6.4 kmh NW 8.0 mph12.9 kmh 30.40 in1029.5 mb 0.00 in0.0 mm 0.00 in0.0 mm 0.01 in0.3 mm
08:30 PM 44.1°F6.7°C 37.0°F2.8°C 76% Calm Calm 4.0 mph6.4 kmh 30.40 in1029.5 mb 0.00 in0.0 mm 0.00 in0.0 mm 0.01 in0.3 mm
09:00 PM 43.9°F6.6°C 37.2°F2.9°C 77% 2.0 mph NW3.2 kmh NW 7.0 mph11.3 kmh 30.41 in1029.8 mb 0.00 in0.0 mm 0.00 in0.0 mm 0.01 in0.3 mm
09:30 PM 44.2°F6.8°C 37.0°F2.8°C 76% 5.0 mph NW8.0 kmh NW 9.0 mph14.5 kmh 30.40 in1029.5 mb 0.00 in0.0 mm 0.00 in0.0 mm 0.01 in0.3 mm
10:00 PM 43.3°F6.3°C 36.3°F2.4°C 76% 3.0 mph NNW4.8 kmh NNW 7.0 mph11.3 kmh 30.41 in1029.8 mb 0.00 in0.0 mm 0.00 in0.0 mm 0.01 in0.3 mm
10:30 PM 42.6°F5.9°C 35.6°F2.0°C 76% 2.0 mph NW3.2 kmh NW 6.0 mph9.7 kmh 30.41 in1029.8 mb 0.00 in0.0 mm 0.00 in0.0 mm 0.01 in0.3 mm
11:00 PM 43.3°F6.3°C 36.0°F2.2°C 75% 4.0 mph NW6.4 kmh NW 7.0 mph11.3 kmh 30.41 in1029.8 mb 0.00 in0.0 mm 0.00 in0.0 mm 0.01 in0.3 mm
11:30 PM 43.5°F6.4°C 36.5°F2.5°C 76% 4.0 mph NW6.4 kmh NW 7.0 mph11.3 kmh 30.41 in1029.8 mb 0.00 in0.0 mm 0.00 in0.0 mm 0.01 in0.3 mm